createdAt,value
2022-12-03T00:00:23.278Z,4.100
2022-12-03T00:01:28.092Z,4.000
2022-12-03T00:02:28.889Z,4.000
2022-12-03T00:04:30.181Z,4.000
2022-12-03T00:05:30.123Z,4.050
2022-12-03T00:06:30.218Z,4.100
2022-12-03T00:07:32.978Z,4.100
2022-12-03T00:08:28.910Z,4.100
2022-12-03T00:09:28.312Z,4.100
2022-12-03T00:10:34.348Z,4.100
2022-12-03T00:11:31.384Z,4.100
2022-12-03T00:12:22.127Z,4.100
2022-12-03T00:13:22.641Z,4.100
2022-12-03T00:14:32.785Z,4.100
2022-12-03T00:15:26.852Z,4.100
2022-12-03T00:16:22.323Z,4.100
2022-12-03T00:17:25.576Z,4.100
2022-12-03T00:19:26.220Z,4.100
2022-12-03T00:20:19.792Z,4.100
2022-12-03T00:21:29.554Z,4.100
2022-12-03T00:22:29.040Z,4.100
2022-12-03T00:23:21.840Z,4.100
2022-12-03T00:24:26.085Z,4.100
2022-12-03T00:25:21.744Z,4.100
2022-12-03T00:26:23.686Z,4.100
2022-12-03T00:27:21.732Z,4.100
2022-12-03T00:28:29.520Z,4.100
2022-12-03T00:29:25.718Z,4.100
2022-12-03T00:30:24.544Z,4.100
2022-12-03T00:31:27.637Z,4.000
2022-12-03T00:32:30.015Z,4.000
2022-12-03T00:33:23.594Z,4.000
2022-12-03T00:34:19.675Z,4.000
2022-12-03T00:35:24.067Z,4.000
2022-12-03T00:36:25.507Z,4.000
2022-12-03T00:37:21.572Z,4.000
2022-12-03T00:38:22.747Z,4.000
2022-12-03T00:39:28.916Z,4.000
2022-12-03T00:42:25.796Z,4.000
2022-12-03T00:43:27.957Z,4.000
2022-12-03T00:44:21.482Z,4.000
2022-12-03T00:45:25.354Z,4.000
2022-12-03T00:46:21.875Z,4.000
2022-12-03T00:47:23.513Z,4.000
2022-12-03T00:49:29.691Z,4.000
2022-12-03T00:50:25.863Z,4.000
2022-12-03T00:51:21.365Z,4.000
2022-12-03T00:52:32.357Z,4.000
2022-12-03T00:53:23.104Z,4.000
2022-12-03T00:54:29.990Z,3.900
2022-12-03T00:55:19.550Z,3.900
2022-12-03T00:56:31.673Z,3.900
2022-12-03T00:57:25.687Z,3.900
2022-12-03T00:58:37.012Z,3.900
2022-12-03T00:59:33.260Z,3.900
2022-12-03T01:00:28.871Z,3.900
2022-12-03T01:02:20.936Z,3.900
2022-12-03T01:03:22.654Z,3.900
2022-12-03T01:04:21.711Z,3.900
2022-12-03T01:05:23.483Z,3.900
2022-12-03T01:06:33.619Z,3.900
2022-12-03T01:07:30.062Z,3.900
2022-12-03T01:08:23.922Z,3.900
2022-12-03T01:09:19.965Z,3.900
2022-12-03T01:10:24.984Z,3.900
2022-12-03T01:11:25.753Z,3.800
2022-12-03T01:12:21.836Z,3.800
2022-12-03T01:13:31.807Z,3.800
2022-12-03T01:14:23.529Z,3.800
2022-12-03T01:15:25.653Z,3.800
2022-12-03T01:16:21.284Z,3.800
2022-12-03T01:17:29.647Z,3.800
2022-12-03T01:18:22.606Z,3.800
2022-12-03T01:19:22.634Z,3.800
2022-12-03T01:20:33.062Z,3.800
2022-12-03T01:21:27.676Z,3.800
2022-12-03T01:22:28.065Z,3.800
2022-12-03T01:23:33.535Z,3.800
2022-12-03T01:24:31.291Z,3.800
2022-12-03T01:25:23.798Z,3.800
2022-12-03T01:26:49.798Z,3.800
2022-12-03T01:27:42.647Z,3.800
2022-12-03T01:28:37.912Z,3.800
2022-12-03T01:29:40.896Z,3.800
2022-12-03T01:31:35.496Z,3.800
2022-12-03T01:32:30.178Z,3.800
2022-12-03T01:33:30.049Z,3.800
2022-12-03T01:35:29.236Z,3.800
2022-12-03T01:36:30.861Z,3.800
2022-12-03T01:37:21.479Z,3.800
2022-12-03T01:38:25.377Z,3.800
2022-12-03T01:39:27.483Z,3.800
2022-12-03T01:40:23.198Z,3.800
2022-12-03T01:41:21.860Z,3.800
2022-12-03T01:42:24.205Z,3.800
2022-12-03T01:43:23.489Z,3.800
2022-12-03T01:44:20.163Z,3.800
2022-12-03T01:45:29.844Z,3.800
2022-12-03T01:46:23.955Z,3.800
2022-12-03T01:47:21.699Z,3.800
2022-12-03T01:48:27.597Z,3.800
2022-12-03T01:49:27.939Z,3.800
2022-12-03T01:50:24.002Z,3.800
2022-12-03T01:51:21.087Z,3.800
2022-12-03T01:52:29.733Z,3.800
2022-12-03T01:53:19.612Z,3.800
2022-12-03T01:54:21.924Z,3.800
2022-12-03T01:55:33.078Z,3.800
2022-12-03T01:56:22.558Z,3.800
2022-12-03T01:57:23.950Z,3.800
2022-12-03T01:58:19.980Z,3.800
2022-12-03T01:59:24.587Z,3.800
2022-12-03T02:00:25.985Z,3.800
2022-12-03T02:01:26.008Z,3.800
2022-12-03T02:02:33.857Z,3.800
2022-12-03T02:44:26.888Z,3.800
2022-12-03T02:45:28.743Z,3.800
2022-12-03T02:47:13.608Z,3.800
2022-12-03T02:47:34.844Z,3.800
2022-12-03T02:48:35.240Z,3.800
2022-12-03T03:23:23.969Z,3.800
2022-12-03T03:24:26.828Z,3.800
2022-12-03T03:25:22.149Z,3.800
2022-12-03T03:26:32.310Z,3.800
2022-12-03T03:27:25.677Z,3.800
2022-12-03T03:28:23.857Z,3.800
2022-12-03T03:29:19.916Z,3.800
2022-12-03T03:30:30.896Z,3.800
2022-12-03T03:31:27.995Z,3.800
2022-12-03T03:32:24.659Z,3.800
2022-12-03T03:33:32.205Z,3.800
2022-12-03T03:34:28.657Z,3.800
2022-12-03T03:36:20.452Z,3.800
2022-12-03T03:37:30.212Z,3.800
2022-12-03T03:38:26.285Z,3.800
2022-12-03T03:39:21.733Z,3.800
2022-12-03T03:40:23.634Z,3.800
2022-12-03T03:41:28.099Z,3.800
2022-12-03T03:42:27.279Z,3.800
2022-12-03T03:44:30.058Z,3.800
2022-12-03T03:45:29.418Z,3.800
2022-12-03T03:46:21.725Z,3.800
2022-12-03T03:47:23.012Z,3.800
2022-12-03T03:48:28.812Z,3.800
2022-12-03T03:49:24.149Z,3.800
2022-12-03T03:50:19.740Z,3.800
2022-12-03T03:51:20.496Z,3.800
2022-12-03T03:53:23.031Z,3.800
2022-12-03T03:54:21.459Z,3.800
2022-12-03T03:55:20.237Z,3.800
2022-12-03T03:56:24.069Z,3.800
2022-12-03T03:57:20.074Z,3.800
2022-12-03T03:58:20.232Z,3.800
2022-12-03T03:59:26.593Z,3.800
2022-12-03T04:00:24.731Z,3.800
2022-12-03T04:01:23.521Z,3.800
2022-12-03T04:02:24.930Z,3.800
2022-12-03T04:03:24.016Z,3.800
2022-12-03T04:04:20.800Z,3.800
2022-12-03T04:05:24.579Z,3.800
2022-12-03T04:06:26.719Z,3.800
2022-12-03T04:07:22.030Z,3.800
2022-12-03T04:08:22.641Z,3.800
2022-12-03T04:10:24.180Z,3.800
2022-12-03T04:11:20.635Z,3.800
2022-12-03T04:12:23.690Z,3.800
2022-12-03T04:13:21.694Z,3.800
2022-12-03T04:14:21.964Z,3.800
2022-12-03T04:15:32.980Z,3.800
2022-12-03T04:16:27.898Z,3.800
2022-12-03T04:17:25.047Z,3.800
2022-12-03T04:18:21.367Z,3.800
2022-12-03T04:19:19.555Z,3.900
2022-12-03T04:20:25.841Z,3.900
2022-12-03T04:21:23.535Z,3.900
2022-12-03T04:22:34.037Z,3.800
2022-12-03T04:23:19.356Z,3.800
2022-12-03T04:24:23.829Z,3.800
2022-12-03T04:25:25.759Z,3.800
2022-12-03T04:26:30.717Z,3.800
2022-12-03T04:27:25.792Z,3.800
2022-12-03T04:28:24.541Z,3.800
2022-12-03T04:30:23.232Z,3.800
2022-12-03T04:31:26.100Z,3.800
2022-12-03T04:32:19.838Z,3.800
2022-12-03T04:33:30.787Z,3.800
2022-12-03T04:34:25.379Z,3.900
2022-12-03T04:35:22.178Z,3.900
2022-12-03T04:36:21.704Z,3.900
2022-12-03T04:37:28.237Z,3.900
2022-12-03T04:38:26.410Z,3.900
2022-12-03T04:39:19.808Z,3.900
2022-12-03T04:40:23.253Z,3.900
2022-12-03T04:41:20.793Z,3.900
2022-12-03T04:42:22.360Z,3.900
2022-12-03T04:43:24.831Z,3.800
2022-12-03T04:44:28.641Z,3.800
2022-12-03T04:45:26.166Z,3.800
2022-12-03T04:46:19.905Z,3.800
2022-12-03T04:47:36.808Z,3.900
2022-12-03T04:48:20.779Z,3.900
2022-12-03T04:49:22.932Z,3.900
2022-12-03T04:50:29.551Z,3.900
2022-12-03T04:51:21.900Z,3.900
2022-12-03T04:52:24.258Z,3.900
2022-12-03T04:53:21.457Z,3.900
2022-12-03T04:54:32.907Z,3.900
2022-12-03T04:55:26.060Z,3.900
2022-12-03T04:56:22.211Z,3.900
2022-12-03T04:57:33.053Z,3.900
2022-12-03T04:59:24.170Z,3.900
2022-12-03T05:00:20.281Z,3.900
2022-12-03T05:01:30.490Z,3.900
2022-12-03T05:03:22.078Z,3.900
2022-12-03T05:04:20.334Z,3.900
2022-12-03T05:05:31.525Z,3.800
2022-12-03T05:07:21.256Z,3.800
2022-12-03T05:08:29.744Z,3.900
2022-12-03T05:09:25.715Z,3.900
2022-12-03T05:10:25.181Z,3.900
2022-12-03T05:11:31.911Z,3.900
2022-12-03T05:12:27.982Z,3.900
2022-12-03T05:13:25.755Z,3.900
2022-12-03T05:16:25.994Z,3.900
2022-12-03T05:17:22.611Z,3.900
2022-12-03T05:18:22.319Z,3.900
2022-12-03T05:19:27.949Z,3.900
2022-12-03T05:20:23.975Z,3.900
2022-12-03T05:21:24.928Z,3.900
2022-12-03T05:23:26.908Z,3.900
2022-12-03T05:24:22.177Z,3.900
2022-12-03T05:25:28.386Z,3.900
2022-12-03T05:26:27.743Z,3.900
2022-12-03T05:27:25.721Z,3.900
2022-12-03T05:28:21.221Z,3.800
2022-12-03T05:29:21.824Z,3.900
2022-12-03T05:30:27.466Z,3.800
2022-12-03T05:31:22.019Z,3.900
2022-12-03T05:32:32.242Z,3.800
2022-12-03T05:33:23.064Z,3.800
2022-12-03T05:34:23.840Z,3.800
2022-12-03T05:35:21.828Z,3.800
2022-12-03T05:36:26.018Z,3.800
2022-12-03T05:37:26.283Z,3.800
2022-12-03T05:38:25.611Z,3.800
2022-12-03T05:39:34.173Z,3.800
2022-12-03T05:40:28.210Z,3.800
2022-12-03T05:41:20.216Z,3.800
2022-12-03T05:42:19.911Z,3.800
2022-12-03T05:43:30.143Z,3.800
2022-12-03T05:45:22.431Z,3.800
2022-12-03T05:46:22.461Z,3.800
2022-12-03T05:47:33.083Z,3.800
2022-12-03T05:49:22.852Z,3.800
2022-12-03T05:50:30.058Z,3.800
2022-12-03T05:51:28.231Z,3.800
2022-12-03T05:53:25.403Z,3.800
2022-12-03T05:54:28.087Z,3.700
2022-12-03T05:55:29.236Z,3.700
2022-12-03T05:56:21.728Z,3.700
2022-12-03T05:57:21.726Z,3.700
2022-12-03T05:58:27.839Z,3.700
2022-12-03T05:59:24.835Z,3.700
2022-12-03T06:01:28.164Z,3.700
2022-12-03T06:02:24.390Z,3.750
2022-12-03T06:03:21.854Z,3.700
2022-12-03T06:04:24.372Z,3.700
2022-12-03T06:05:26.111Z,3.700
2022-12-03T06:06:23.399Z,3.700
2022-12-03T06:08:29.991Z,3.700
2022-12-03T06:09:24.669Z,3.700
2022-12-03T06:10:22.413Z,3.700
2022-12-03T06:11:22.096Z,3.700
2022-12-03T06:12:28.090Z,3.700
2022-12-03T06:14:26.448Z,3.700
2022-12-03T06:15:20.651Z,3.700
2022-12-03T06:16:25.423Z,3.700
2022-12-03T06:17:20.254Z,3.700
2022-12-03T06:18:29.978Z,3.700
2022-12-03T06:19:27.069Z,3.700
2022-12-03T06:20:22.022Z,3.700
2022-12-03T06:21:30.272Z,3.700
2022-12-03T06:22:28.767Z,3.700
2022-12-03T06:24:21.679Z,3.700
2022-12-03T06:25:31.403Z,3.700
2022-12-03T06:26:26.040Z,3.600
2022-12-03T06:27:22.700Z,3.600
2022-12-03T06:28:34.890Z,3.600
2022-12-03T06:31:21.222Z,3.600
2022-12-03T06:32:31.993Z,3.600
2022-12-03T06:33:21.789Z,3.600
2022-12-03T06:34:23.898Z,3.600
2022-12-03T06:35:33.765Z,3.600
2022-12-03T06:36:31.972Z,3.600
2022-12-03T06:39:30.284Z,3.600
2022-12-03T06:40:27.652Z,3.600
2022-12-03T06:41:24.195Z,3.600
2022-12-03T06:43:34.027Z,3.600
2022-12-03T06:44:19.633Z,3.600
2022-12-03T06:45:24.269Z,3.600
2022-12-03T06:47:27.324Z,3.600
2022-12-03T06:48:22.554Z,3.600
2022-12-03T06:49:22.565Z,3.600
2022-12-03T06:50:28.240Z,3.600
2022-12-03T06:51:24.280Z,3.600
2022-12-03T06:52:20.416Z,3.600
2022-12-03T06:53:21.316Z,3.600
2022-12-03T06:54:28.209Z,3.600
2022-12-03T06:56:32.826Z,3.600
2022-12-03T06:58:25.856Z,3.600
2022-12-03T06:59:20.458Z,3.600
2022-12-03T07:00:23.763Z,3.600
2022-12-03T07:01:26.696Z,3.600
2022-12-03T07:02:22.539Z,3.600
2022-12-03T07:03:28.887Z,3.600
2022-12-03T07:04:24.315Z,3.600
2022-12-03T07:05:24.159Z,3.600
2022-12-03T07:06:20.530Z,3.600
2022-12-03T07:07:30.155Z,3.600
2022-12-03T07:08:22.645Z,3.600
2022-12-03T07:09:23.773Z,3.600
2022-12-03T07:10:33.108Z,3.600
2022-12-03T07:11:30.508Z,3.600
2022-12-03T07:12:24.193Z,3.600
2022-12-03T07:13:20.229Z,3.600
2022-12-03T07:14:33.389Z,3.600
2022-12-03T07:16:22.947Z,3.600
2022-12-03T07:17:32.421Z,3.600
2022-12-03T07:18:30.081Z,3.600
2022-12-03T07:19:27.677Z,3.600
2022-12-03T07:20:21.988Z,3.600
2022-12-03T07:21:30.444Z,3.600
2022-12-03T07:22:27.760Z,3.600
2022-12-03T07:23:22.062Z,3.600
2022-12-03T07:25:36.403Z,3.700
2022-12-03T07:26:27.456Z,3.700
2022-12-03T07:27:20.199Z,3.600
2022-12-03T07:28:30.416Z,3.700
2022-12-03T07:29:26.030Z,3.700
2022-12-03T07:30:23.832Z,3.700
2022-12-03T07:31:19.881Z,3.700
2022-12-03T07:33:24.043Z,3.700
2022-12-03T07:34:20.642Z,3.700
2022-12-03T07:35:30.353Z,3.700
2022-12-03T07:36:26.430Z,3.700
2022-12-03T07:37:23.408Z,3.700
2022-12-03T07:38:23.889Z,3.700
2022-12-03T07:40:25.062Z,3.700
2022-12-03T07:41:20.208Z,3.600
2022-12-03T07:42:22.117Z,3.600
2022-12-03T07:43:26.442Z,3.600
2022-12-03T07:44:23.910Z,3.600
2022-12-03T07:45:29.858Z,3.600
2022-12-03T07:47:24.495Z,3.600
2022-12-03T07:48:21.827Z,3.600
2022-12-03T07:49:21.453Z,3.600
2022-12-03T07:50:26.348Z,3.600
2022-12-03T07:51:24.226Z,3.600
2022-12-03T07:52:29.116Z,3.600
2022-12-03T07:54:25.102Z,3.600
2022-12-03T07:55:20.427Z,3.600
2022-12-03T07:56:25.144Z,3.600
2022-12-03T07:57:22.169Z,3.600
2022-12-03T07:58:22.420Z,3.600
2022-12-03T07:59:32.672Z,3.600
2022-12-03T08:00:29.351Z,3.600
2022-12-03T08:02:21.820Z,3.600
2022-12-03T08:03:26.629Z,3.600
2022-12-03T08:04:27.242Z,3.600
2022-12-03T08:05:22.580Z,3.600
2022-12-03T08:07:23.806Z,3.600
2022-12-03T08:08:29.420Z,3.600
2022-12-03T08:10:30.126Z,3.600
2022-12-03T08:11:26.995Z,3.600
2022-12-03T08:12:23.495Z,3.600
2022-12-03T08:13:32.550Z,3.600
2022-12-03T08:14:24.452Z,3.600
2022-12-03T08:15:21.844Z,3.600
2022-12-03T08:16:20.342Z,3.600
2022-12-03T08:17:32.771Z,3.600
2022-12-03T08:18:21.191Z,3.600
2022-12-03T08:19:22.296Z,3.700
2022-12-03T08:20:20.143Z,3.700
2022-12-03T08:21:27.971Z,3.700
2022-12-03T08:22:24.137Z,3.700
2022-12-03T08:23:20.337Z,3.700
2022-12-03T08:24:23.050Z,3.700
2022-12-03T08:25:23.168Z,3.700
2022-12-03T08:26:22.761Z,3.700
2022-12-03T08:27:25.246Z,3.700
2022-12-03T08:28:32.115Z,3.700
2022-12-03T08:29:24.051Z,3.700
2022-12-03T08:30:20.922Z,3.700
2022-12-03T08:31:32.949Z,3.700
2022-12-03T08:32:25.859Z,3.700
2022-12-03T08:33:22.437Z,3.700
2022-12-03T08:34:28.103Z,3.700
2022-12-03T08:35:22.583Z,3.700
2022-12-03T08:36:20.922Z,3.700
2022-12-03T08:37:20.091Z,3.800
2022-12-03T08:38:32.535Z,3.800
2022-12-03T08:40:23.215Z,3.800
2022-12-03T08:42:25.331Z,3.800
2022-12-03T08:43:22.069Z,3.800
2022-12-03T08:44:20.105Z,3.800
2022-12-03T08:45:31.060Z,3.800
2022-12-03T08:46:29.350Z,3.800
2022-12-03T08:48:32.426Z,3.800
2022-12-03T08:49:27.291Z,3.800
2022-12-03T08:50:26.548Z,3.800
2022-12-03T08:51:20.541Z,3.800
2022-12-03T08:52:30.278Z,3.800
2022-12-03T08:53:28.144Z,3.800
2022-12-03T08:54:24.061Z,3.800
2022-12-03T08:56:30.749Z,3.800
2022-12-03T08:57:25.989Z,3.800
2022-12-03T08:59:30.536Z,3.800
2022-12-03T09:00:24.627Z,3.800
2022-12-03T09:01:26.057Z,3.800
2022-12-03T09:02:21.348Z,3.800
2022-12-03T09:03:29.487Z,3.900
2022-12-03T09:05:24.435Z,3.900
2022-12-03T09:06:28.175Z,3.800
2022-12-03T09:07:26.427Z,3.800
2022-12-03T09:08:24.070Z,3.900
2022-12-03T09:09:27.064Z,3.900
2022-12-03T09:10:28.097Z,3.900
2022-12-03T09:11:24.334Z,3.900
2022-12-03T09:12:23.771Z,3.900
2022-12-03T09:13:20.604Z,3.900
2022-12-03T09:14:26.221Z,3.900
2022-12-03T09:16:32.654Z,3.900
2022-12-03T09:17:25.519Z,3.900
2022-12-03T09:18:24.120Z,3.900
2022-12-03T09:19:20.386Z,4.000
2022-12-03T09:20:25.200Z,4.000
2022-12-03T09:21:28.029Z,4.000
2022-12-03T09:22:22.288Z,4.000
2022-12-03T09:23:22.405Z,4.000
2022-12-03T09:24:28.569Z,4.000
2022-12-03T09:25:19.941Z,4.000
2022-12-03T09:26:20.347Z,4.000
2022-12-03T09:27:30.538Z,4.000
2022-12-03T09:28:22.501Z,4.050
2022-12-03T09:29:22.271Z,4.100
2022-12-03T09:30:23.619Z,4.100
2022-12-03T09:31:32.044Z,4.100
2022-12-03T09:33:20.345Z,4.100
2022-12-03T09:34:26.284Z,4.100
2022-12-03T09:35:28.063Z,4.100
2022-12-03T09:36:23.087Z,4.100
2022-12-03T09:37:26.695Z,4.100
2022-12-03T09:38:28.491Z,4.100
2022-12-03T09:39:24.691Z,4.100
2022-12-03T09:40:21.300Z,4.100
2022-12-03T09:42:30.543Z,4.100
2022-12-03T09:43:22.560Z,4.150
2022-12-03T09:44:32.348Z,4.200
2022-12-03T09:45:23.303Z,4.200
2022-12-03T09:46:24.758Z,4.200
2022-12-03T09:47:20.184Z,4.200
2022-12-03T09:48:24.645Z,4.200
2022-12-03T09:49:26.474Z,4.200
2022-12-03T09:50:22.716Z,4.200
2022-12-03T09:51:28.839Z,4.300
2022-12-03T09:52:19.585Z,4.300
2022-12-03T09:53:25.037Z,4.300
2022-12-03T09:54:22.535Z,4.300
2022-12-03T09:55:24.582Z,4.300
2022-12-03T09:56:20.464Z,4.300
2022-12-03T09:57:22.544Z,4.300
2022-12-03T09:58:24.414Z,4.300
2022-12-03T09:59:22.580Z,4.300
2022-12-03T10:00:24.643Z,4.300
2022-12-03T10:01:21.227Z,4.300
2022-12-03T10:02:27.340Z,4.300
2022-12-03T10:04:22.622Z,4.300
2022-12-03T10:05:27.504Z,4.300
2022-12-03T10:06:19.989Z,4.300
2022-12-03T10:07:24.558Z,4.300
2022-12-03T10:08:21.679Z,4.300
2022-12-03T10:09:35.590Z,4.300
2022-12-03T10:11:23.963Z,4.300
2022-12-03T10:12:34.441Z,4.300
2022-12-03T10:13:25.981Z,4.300
2022-12-03T10:15:24.105Z,4.400
2022-12-03T10:16:30.504Z,4.400
2022-12-03T10:17:28.461Z,4.400
2022-12-03T10:19:27.078Z,4.400
2022-12-03T10:20:28.421Z,4.400
2022-12-03T10:21:21.200Z,4.400
2022-12-03T10:22:22.270Z,4.400
2022-12-03T10:23:30.761Z,4.400
2022-12-03T10:25:22.463Z,4.400
2022-12-03T10:26:34.510Z,4.400
2022-12-03T10:27:28.848Z,4.400
2022-12-03T10:28:24.850Z,4.400
2022-12-03T10:29:25.837Z,4.400
2022-12-03T10:30:25.373Z,4.400
2022-12-03T10:31:29.083Z,4.400
2022-12-03T10:33:24.998Z,4.500
2022-12-03T10:34:29.235Z,4.500
2022-12-03T10:35:24.801Z,4.500
2022-12-03T10:36:21.944Z,4.500
2022-12-03T10:37:30.671Z,4.500
2022-12-03T10:38:28.870Z,4.500
2022-12-03T10:39:22.225Z,4.500
2022-12-03T10:40:27.298Z,4.500
2022-12-03T10:41:22.289Z,4.500
2022-12-03T10:42:24.620Z,4.500
2022-12-03T10:43:20.279Z,4.500
2022-12-03T10:44:30.670Z,4.500
2022-12-03T10:45:28.048Z,4.500
2022-12-03T10:46:22.899Z,4.500
2022-12-03T10:47:26.273Z,4.500
2022-12-03T10:48:25.821Z,4.500
2022-12-03T10:49:24.674Z,4.500
2022-12-03T10:50:20.878Z,4.500
2022-12-03T10:51:25.149Z,4.500
2022-12-03T10:52:26.485Z,4.500
2022-12-03T10:53:24.515Z,4.500
2022-12-03T10:54:32.317Z,4.500
2022-12-03T10:55:29.073Z,4.500
2022-12-03T10:57:20.674Z,4.500
2022-12-03T10:58:25.529Z,4.500
2022-12-03T10:59:20.406Z,4.500
2022-12-03T11:00:22.602Z,4.500
2022-12-03T11:01:34.232Z,4.500
2022-12-03T11:02:28.590Z,4.600
2022-12-03T11:03:26.175Z,4.600
2022-12-03T11:05:30.998Z,4.600
2022-12-03T11:06:26.469Z,4.600
2022-12-03T11:07:22.606Z,4.600
2022-12-03T11:08:32.360Z,4.600
2022-12-03T11:09:19.985Z,4.600
2022-12-03T11:10:24.454Z,4.600
2022-12-03T11:11:24.348Z,4.600
2022-12-03T11:13:28.115Z,4.600
2022-12-03T11:14:24.105Z,4.600
2022-12-03T11:15:24.851Z,4.600
2022-12-03T11:16:29.010Z,4.600
2022-12-03T11:17:25.867Z,4.600
2022-12-03T11:18:20.457Z,4.600
2022-12-03T11:19:21.759Z,4.600
2022-12-03T11:20:26.331Z,4.600
2022-12-03T11:21:25.031Z,4.600
2022-12-03T11:22:26.614Z,4.700
2022-12-03T11:23:28.772Z,4.700
2022-12-03T11:24:25.482Z,4.700
2022-12-03T11:25:20.892Z,4.700
2022-12-03T11:26:21.842Z,4.600
2022-12-03T11:27:26.241Z,4.600
2022-12-03T11:28:22.438Z,4.600
2022-12-03T11:29:24.088Z,4.600
2022-12-03T11:30:30.052Z,4.600
2022-12-03T11:31:24.529Z,4.600
2022-12-03T11:32:21.849Z,4.600
2022-12-03T11:34:22.119Z,4.600
2022-12-03T11:35:22.239Z,4.600
2022-12-03T11:36:47.757Z,4.600
2022-12-03T11:37:29.432Z,4.600
2022-12-03T11:38:24.712Z,4.600
2022-12-03T11:39:20.300Z,4.700
2022-12-03T11:40:27.092Z,4.700
2022-12-03T11:41:28.251Z,4.700
2022-12-03T11:42:23.052Z,4.700
2022-12-03T11:43:24.128Z,4.700
2022-12-03T11:44:23.521Z,4.700
2022-12-03T11:45:24.735Z,4.700
2022-12-03T11:46:20.337Z,4.700
2022-12-03T11:47:30.825Z,4.800
2022-12-03T11:48:27.898Z,4.800
2022-12-03T11:49:23.291Z,4.800
2022-12-03T11:51:28.565Z,4.800
2022-12-03T11:52:21.417Z,4.800
2022-12-03T11:53:20.768Z,4.800
2022-12-03T11:55:26.713Z,4.800
2022-12-03T11:56:22.712Z,4.800
2022-12-03T11:57:20.938Z,4.800
2022-12-03T11:58:31.411Z,4.800
2022-12-03T11:59:25.340Z,4.800
2022-12-03T12:00:27.797Z,4.800
2022-12-03T12:01:34.150Z,4.800
2022-12-03T12:02:21.824Z,4.800
2022-12-03T12:03:22.863Z,4.800
2022-12-03T12:04:25.302Z,4.800
2022-12-03T12:05:30.887Z,4.800
2022-12-03T12:07:20.622Z,4.700
2022-12-03T12:08:30.457Z,4.700
2022-12-03T12:09:28.378Z,4.700
2022-12-03T12:10:22.546Z,4.700
2022-12-03T12:11:23.644Z,4.700
2022-12-03T12:12:22.064Z,4.700
2022-12-03T12:13:20.284Z,4.800
2022-12-03T12:14:22.006Z,4.700
2022-12-03T12:15:31.946Z,4.750
2022-12-03T12:16:28.270Z,4.800
2022-12-03T12:17:23.869Z,4.800
2022-12-03T12:18:34.932Z,4.800
2022-12-03T12:20:24.576Z,4.800
2022-12-03T12:21:20.578Z,4.800
2022-12-03T12:22:23.397Z,4.800
2022-12-03T12:23:27.171Z,4.800
2022-12-03T12:24:23.544Z,4.800
2022-12-03T12:25:37.424Z,4.800
2022-12-03T12:26:32.198Z,4.800
2022-12-03T12:28:20.584Z,4.800
2022-12-03T12:29:27.952Z,4.800
2022-12-03T12:30:26.866Z,4.800
2022-12-03T12:31:22.599Z,4.800
2022-12-03T12:32:33.863Z,4.800
2022-12-03T12:33:28.740Z,4.800
2022-12-03T12:34:25.811Z,4.800
2022-12-03T12:35:21.053Z,4.800
2022-12-03T12:37:24.483Z,4.900
2022-12-03T12:38:23.922Z,4.900
2022-12-03T12:39:22.151Z,4.900
2022-12-03T12:40:30.545Z,4.900
2022-12-03T12:42:22.809Z,4.900
2022-12-03T12:43:30.683Z,4.900
2022-12-03T12:44:27.283Z,4.900
2022-12-03T12:45:19.696Z,4.900
2022-12-03T12:46:47.584Z,4.900
2022-12-03T12:47:29.999Z,4.900
2022-12-03T12:48:37.769Z,4.900
2022-12-03T12:50:24.057Z,4.900
2022-12-03T12:51:26.644Z,4.900
2022-12-03T12:52:23.883Z,4.900
2022-12-03T12:53:32.523Z,4.900
2022-12-03T12:54:30.349Z,4.900
2022-12-03T12:55:25.366Z,4.900
2022-12-03T12:56:23.191Z,4.900
2022-12-03T12:57:26.364Z,4.900
2022-12-03T12:58:19.989Z,4.900
2022-12-03T12:59:24.152Z,4.900
2022-12-03T13:00:20.910Z,4.900
2022-12-03T13:01:29.233Z,4.900
2022-12-03T13:02:24.840Z,4.900
2022-12-03T13:03:21.740Z,4.900
2022-12-03T13:04:46.878Z,4.900
2022-12-03T13:06:22.704Z,4.900
2022-12-03T13:07:25.097Z,5.000
2022-12-03T13:08:28.942Z,4.950
2022-12-03T13:09:25.060Z,4.900
2022-12-03T13:10:22.356Z,5.000
2022-12-03T13:11:32.423Z,5.000
2022-12-03T13:12:26.578Z,5.000
2022-12-03T13:14:28.770Z,5.000
2022-12-03T13:15:23.464Z,5.000
2022-12-03T13:16:26.156Z,5.000
2022-12-03T13:17:20.611Z,5.000
2022-12-03T13:18:22.966Z,5.000
2022-12-03T13:19:27.926Z,5.000
2022-12-03T13:20:25.156Z,5.000
2022-12-03T13:22:29.674Z,5.000
2022-12-03T13:23:24.955Z,5.000
2022-12-03T13:25:50.571Z,5.000
2022-12-03T13:26:38.346Z,5.000
2022-12-03T13:27:22.711Z,5.000
2022-12-03T13:28:23.499Z,5.000
2022-12-03T13:29:30.026Z,5.000
2022-12-03T13:30:24.509Z,5.000
2022-12-03T13:31:20.803Z,5.000
2022-12-03T13:32:27.152Z,5.000
2022-12-03T13:33:28.935Z,5.000
2022-12-03T13:34:22.583Z,4.900
2022-12-03T13:35:21.872Z,4.900
2022-12-03T13:36:22.257Z,4.900
2022-12-03T13:37:26.989Z,4.900
2022-12-03T13:38:23.278Z,4.900
2022-12-03T13:39:32.414Z,4.900
2022-12-03T13:40:27.170Z,4.900
2022-12-03T13:41:25.582Z,4.900
2022-12-03T13:42:34.233Z,4.900
2022-12-03T13:43:25.058Z,4.900
2022-12-03T13:44:26.083Z,4.900
2022-12-03T13:45:20.480Z,4.900
2022-12-03T13:46:33.949Z,4.900
2022-12-03T13:47:20.040Z,4.900
2022-12-03T13:48:25.312Z,4.900
2022-12-03T13:49:36.757Z,4.900
2022-12-03T13:52:22.362Z,4.900
2022-12-03T13:53:20.597Z,4.900
2022-12-03T13:54:24.340Z,4.900
2022-12-03T13:55:22.882Z,4.900
2022-12-03T13:56:32.549Z,4.900
2022-12-03T13:57:34.241Z,4.900
2022-12-03T14:00:25.413Z,4.900
2022-12-03T14:01:26.850Z,4.900
2022-12-03T14:02:22.976Z,4.900
2022-12-03T14:03:32.583Z,4.900
2022-12-03T14:04:30.538Z,4.900
2022-12-03T14:05:21.122Z,4.900
2022-12-03T14:06:23.432Z,4.900
2022-12-03T14:08:22.113Z,4.900
2022-12-03T14:09:23.717Z,4.900
2022-12-03T14:10:34.147Z,4.900
2022-12-03T14:11:29.325Z,4.900
2022-12-03T14:12:26.007Z,4.800
2022-12-03T14:13:20.960Z,4.800
2022-12-03T14:14:20.395Z,4.800
2022-12-03T14:15:28.672Z,4.800
2022-12-03T14:17:32.957Z,4.800
2022-12-03T14:18:29.561Z,4.800
2022-12-03T14:19:27.385Z,4.800
2022-12-03T14:21:24.271Z,4.800
2022-12-03T14:22:28.304Z,4.800
2022-12-03T14:23:22.616Z,4.800
2022-12-03T14:24:34.129Z,4.800
2022-12-03T14:25:29.095Z,4.800
2022-12-03T14:26:26.997Z,4.800
2022-12-03T14:27:20.858Z,4.800
2022-12-03T14:28:31.596Z,4.800
2022-12-03T14:29:21.932Z,4.800
2022-12-03T14:30:26.759Z,4.800
2022-12-03T14:31:19.803Z,4.800
2022-12-03T14:32:33.267Z,4.800
2022-12-03T14:33:24.518Z,4.800
2022-12-03T14:34:22.506Z,4.800
2022-12-03T14:35:35.038Z,4.800
2022-12-03T14:37:32.246Z,4.800
2022-12-03T14:38:24.606Z,4.800
2022-12-03T14:39:28.834Z,4.800
2022-12-03T14:40:26.977Z,4.800
2022-12-03T14:41:23.150Z,4.800
2022-12-03T14:42:30.870Z,4.800
2022-12-03T14:43:30.735Z,4.800
2022-12-03T14:46:21.088Z,4.800
2022-12-03T14:47:25.720Z,4.800
2022-12-03T14:48:22.395Z,4.800
2022-12-03T14:49:34.356Z,4.700
2022-12-03T14:50:26.792Z,4.700
2022-12-03T14:51:24.103Z,4.700
2022-12-03T14:52:21.773Z,4.700
2022-12-03T14:53:27.363Z,4.700
2022-12-03T14:54:39.000Z,4.700
2022-12-03T14:55:20.924Z,4.700
2022-12-03T14:56:30.700Z,4.700
2022-12-03T14:57:28.618Z,4.700
2022-12-03T14:58:22.919Z,4.700
2022-12-03T14:59:27.684Z,4.700
2022-12-03T15:01:23.528Z,4.700
2022-12-03T15:02:20.994Z,4.700
2022-12-03T15:03:30.661Z,4.700
2022-12-03T15:04:28.088Z,4.700
2022-12-03T15:05:28.601Z,4.700
2022-12-03T15:06:28.277Z,4.700
2022-12-03T15:08:25.716Z,4.700
2022-12-03T15:09:22.722Z,4.700
2022-12-03T15:10:22.817Z,4.700
2022-12-03T15:11:46.159Z,4.700
2022-12-03T15:12:24.486Z,4.700
2022-12-03T15:13:33.115Z,4.700
2022-12-03T15:15:25.286Z,4.700
2022-12-03T15:16:23.616Z,4.700
2022-12-03T15:17:31.330Z,4.700
2022-12-03T15:18:26.836Z,4.700
2022-12-03T15:19:23.930Z,4.700
2022-12-03T15:20:34.749Z,4.700
2022-12-03T15:21:20.709Z,4.700
2022-12-03T15:22:24.663Z,4.700
2022-12-03T15:23:21.554Z,4.700
2022-12-03T15:24:20.072Z,4.700
2022-12-03T15:25:26.653Z,4.700
2022-12-03T15:26:22.660Z,4.700
2022-12-03T15:27:33.081Z,4.700
2022-12-03T15:28:24.044Z,4.700
2022-12-03T15:29:29.675Z,4.700
2022-12-03T15:31:23.755Z,4.700
2022-12-03T15:32:27.254Z,4.700
2022-12-03T15:33:22.739Z,4.650
2022-12-03T15:34:35.583Z,4.600
2022-12-03T15:35:25.873Z,4.600